createdAt,value
2022-10-01T00:01:18.888Z,82.35
2022-10-01T00:03:49.393Z,82.31
2022-10-01T00:06:20.682Z,82.39
2022-10-01T00:08:50.783Z,82.64
2022-10-01T00:11:21.171Z,82.57
2022-10-01T00:13:51.576Z,82.75
2022-10-01T00:16:21.798Z,83.12
2022-10-01T00:18:49.906Z,83.49
2022-10-01T00:21:29.956Z,83.51
2022-10-01T00:24:04.800Z,83.62
2022-10-01T00:26:37.365Z,83.71
2022-10-01T00:29:13.971Z,83.37
2022-10-01T00:31:41.407Z,83.88
2022-10-01T00:34:11.360Z,83.48
2022-10-01T00:36:38.609Z,83.76
2022-10-01T00:39:05.935Z,83.71
2022-10-01T00:41:35.141Z,83.94
2022-10-01T00:44:24.591Z,84.03
2022-10-01T00:46:54.116Z,84.03
2022-10-01T00:49:26.782Z,84.53
2022-10-01T00:52:02.383Z,84.39
2022-10-01T00:54:49.471Z,84.69
2022-10-01T00:57:20.791Z,85.24
2022-10-01T00:59:50.194Z,85.60
2022-10-01T01:02:17.825Z,84.97
2022-10-01T01:04:45.285Z,84.82
2022-10-01T01:07:14.027Z,84.47
2022-10-01T01:09:47.601Z,84.31
2022-10-01T01:12:32.072Z,84.87
2022-10-01T01:15:18.106Z,84.75
2022-10-01T01:17:53.235Z,85.10
2022-10-01T01:20:42.830Z,84.95
2022-10-01T01:23:15.760Z,84.99
2022-10-01T01:25:50.291Z,85.14
2022-10-01T01:28:27.562Z,85.15
2022-10-01T01:31:01.149Z,85.90
2022-10-01T01:33:31.248Z,85.47
2022-10-01T01:36:06.993Z,85.45
2022-10-01T01:38:40.549Z,85.54
2022-10-01T01:41:09.306Z,85.38
2022-10-01T01:43:41.950Z,85.86
2022-10-01T01:46:18.278Z,86.11
2022-10-01T01:48:51.236Z,86.22
2022-10-01T01:51:31.811Z,86.14
2022-10-01T01:53:59.426Z,85.94
2022-10-01T01:56:26.678Z,86.76
2022-10-01T01:58:57.511Z,86.43
2022-10-01T02:01:41.036Z,86.16
2022-10-01T02:04:36.030Z,86.17
2022-10-01T02:07:21.341Z,85.92
2022-10-01T02:10:00.960Z,86.21
2022-10-01T02:12:53.782Z,86.02
2022-10-01T02:16:01.504Z,86.08
2022-10-01T02:18:34.008Z,86.55
2022-10-01T02:21:21.563Z,86.53
2022-10-01T02:23:58.240Z,86.08
2022-10-01T02:26:29.118Z,86.33
2022-10-01T02:29:00.979Z,86.64
2022-10-01T02:31:30.786Z,86.75
2022-10-01T02:34:00.713Z,86.93
2022-10-01T02:36:31.787Z,87.16
2022-10-01T02:39:00.897Z,87.44
2022-10-01T02:41:31.439Z,87.32
2022-10-01T02:44:25.319Z,87.35
2022-10-01T02:46:59.437Z,87.36
2022-10-01T02:49:30.887Z,87.26
2022-10-01T02:52:24.159Z,86.96
2022-10-01T02:55:00.437Z,87.54
2022-10-01T02:57:28.950Z,87.55
2022-10-01T03:00:09.113Z,87.62
2022-10-01T03:02:36.476Z,87.54
2022-10-01T03:05:05.245Z,88.31
2022-10-01T03:07:35.750Z,88.29
2022-10-01T03:10:07.975Z,88.06
2022-10-01T03:12:35.902Z,87.80
2022-10-01T03:15:04.581Z,87.69
2022-10-01T03:17:31.820Z,87.90
2022-10-01T03:19:58.757Z,87.92
2022-10-01T03:22:26.293Z,87.13
2022-10-01T03:24:53.954Z,87.09
2022-10-01T03:27:22.067Z,87.55
2022-10-01T03:29:49.669Z,87.58
2022-10-01T03:32:17.840Z,87.79
2022-10-01T03:34:45.028Z,88.37
2022-10-01T03:37:12.444Z,87.81
2022-10-01T03:39:40.333Z,88.07
2022-10-01T03:42:07.439Z,87.89
2022-10-01T03:44:35.431Z,87.93
2022-10-01T03:47:02.472Z,87.55
2022-10-01T03:49:29.896Z,87.92
2022-10-01T03:51:57.979Z,88.29
2022-10-01T03:54:26.512Z,88.28
2022-10-01T03:56:53.514Z,88.41
2022-10-01T03:59:21.395Z,88.76
2022-10-01T04:01:48.840Z,88.63
2022-10-01T04:04:19.061Z,88.98
2022-10-01T04:06:48.864Z,89.16
2022-10-01T04:09:15.869Z,89.88
2022-10-01T04:11:43.250Z,89.79
2022-10-01T04:14:11.203Z,89.58
2022-10-01T04:16:40.501Z,91.09
2022-10-01T04:19:08.247Z,89.62
2022-10-01T04:21:42.497Z,88.06
2022-10-01T04:24:09.716Z,88.10
2022-10-01T04:26:39.134Z,88.52
2022-10-01T04:29:06.191Z,88.55
2022-10-01T04:31:35.881Z,88.78
2022-10-01T04:34:08.501Z,88.93
2022-10-01T04:36:37.452Z,88.41
2022-10-01T04:39:05.279Z,88.70
2022-10-01T04:41:32.431Z,88.69
2022-10-01T04:44:00.427Z,88.18
2022-10-01T04:46:34.801Z,88.49
2022-10-01T04:49:05.952Z,88.41
2022-10-01T04:51:36.378Z,88.03
2022-10-01T04:54:04.048Z,87.81
2022-10-01T04:56:31.160Z,88.03
2022-10-01T04:59:02.005Z,87.76
2022-10-01T05:01:30.134Z,87.78
2022-10-01T05:03:59.267Z,87.58
2022-10-01T05:06:27.221Z,87.34
2022-10-01T05:08:59.359Z,87.34
2022-10-01T05:11:28.669Z,87.60
2022-10-01T05:13:56.756Z,87.45
2022-10-01T05:16:24.529Z,87.41
2022-10-01T05:18:55.103Z,87.39
2022-10-01T05:21:23.275Z,87.21
2022-10-01T05:23:50.283Z,87.47
2022-10-01T05:26:19.661Z,87.21
2022-10-01T05:29:01.886Z,86.58
2022-10-01T05:31:31.994Z,86.26
2022-10-01T05:34:00.208Z,86.39
2022-10-01T05:36:27.271Z,85.99
2022-10-01T05:38:54.756Z,85.63
2022-10-01T05:41:25.601Z,85.78
2022-10-01T05:43:53.120Z,85.51
2022-10-01T05:46:20.373Z,84.79
2022-10-01T05:48:51.632Z,84.52
2022-10-01T05:51:20.887Z,83.60
2022-10-01T05:53:50.591Z,83.45
2022-10-01T05:56:21.702Z,83.02
2022-10-01T05:58:49.615Z,83.31
2022-10-01T06:01:17.387Z,83.35
2022-10-01T06:03:48.990Z,82.98
2022-10-01T06:06:31.591Z,82.26
2022-10-01T06:09:01.945Z,82.07
2022-10-01T06:11:29.060Z,81.78
2022-10-01T06:13:56.125Z,81.81
2022-10-01T06:16:23.490Z,81.11
2022-10-01T06:18:52.169Z,81.28
2022-10-01T06:21:19.074Z,80.98
2022-10-01T06:23:49.463Z,80.75
2022-10-01T06:26:17.174Z,79.90
2022-10-01T06:28:44.369Z,78.25
2022-10-01T06:31:18.929Z,78.32
2022-10-01T06:33:47.813Z,78.70
2022-10-01T06:36:17.485Z,78.22
2022-10-01T06:38:49.454Z,76.60
2022-10-01T06:41:16.742Z,76.15
2022-10-01T06:43:43.693Z,75.48
2022-10-01T06:46:14.327Z,75.57
2022-10-01T06:51:45.432Z,75.02
2022-10-01T06:54:15.105Z,74.43
2022-10-01T06:56:42.007Z,74.24
2022-10-01T06:59:09.031Z,73.75
2022-10-01T07:01:40.483Z,73.68
2022-10-01T07:04:09.783Z,73.46
2022-10-01T07:06:36.802Z,74.03
2022-10-01T07:09:04.330Z,73.39
2022-10-01T07:11:38.809Z,72.60
2022-10-01T07:14:09.938Z,72.47
2022-10-01T07:16:40.222Z,71.92
2022-10-01T07:19:07.707Z,71.89
2022-10-01T07:21:40.816Z,71.47
2022-10-01T07:24:10.919Z,71.46
2022-10-01T07:26:37.978Z,71.31
2022-10-01T07:29:05.028Z,71.54
2022-10-01T07:31:44.450Z,71.33
2022-10-01T07:34:13.689Z,70.76
2022-10-01T07:36:48.327Z,70.06
2022-10-01T07:39:16.952Z,69.65
2022-10-01T07:41:46.369Z,68.98
2022-10-01T07:44:18.927Z,66.20
2022-10-01T07:47:03.482Z,62.94
2022-10-01T07:52:14.815Z,59.52
2022-10-01T07:54:44.795Z,58.59
2022-10-01T07:57:12.941Z,57.44
2022-10-01T07:59:41.500Z,56.93
2022-10-01T08:02:17.421Z,55.54
2022-10-01T08:05:02.994Z,54.92
2022-10-01T08:07:32.035Z,53.90
2022-10-01T08:09:59.048Z,53.82
2022-10-01T08:15:46.208Z,53.96
2022-10-01T08:18:14.156Z,53.24
2022-10-01T08:23:29.554Z,50.30
2022-10-01T08:29:43.490Z,43.65
2022-10-01T08:32:11.580Z,42.50
2022-10-01T08:34:39.043Z,40.92
2022-10-01T08:43:41.056Z,32.85
2022-10-01T08:46:35.381Z,32.17
2022-10-01T08:49:20.996Z,29.13
2022-10-01T08:54:57.381Z,26.80
2022-10-01T08:57:30.802Z,26.15
2022-10-01T09:00:18.741Z,25.14
2022-10-01T09:02:58.479Z,24.94
2022-10-01T09:13:50.248Z,22.85
2022-10-01T09:16:55.128Z,22.06
2022-10-01T09:20:07.883Z,22.22
2022-10-01T09:26:25.857Z,21.53
2022-10-01T09:28:55.722Z,21.59
2022-10-01T09:35:06.974Z,20.60
2022-10-01T09:37:48.784Z,20.15
2022-10-01T09:41:03.214Z,19.83
2022-10-01T09:43:46.003Z,20.10
2022-10-01T09:46:20.318Z,20.65
2022-10-01T09:49:57.719Z,20.20
2022-10-01T09:52:41.648Z,19.79
2022-10-01T09:55:49.291Z,18.65
2022-10-01T10:04:57.770Z,22.95
2022-10-01T10:07:25.799Z,24.14
2022-10-01T10:10:39.723Z,25.87
2022-10-01T10:13:16.851Z,27.23
2022-10-01T10:15:59.417Z,26.85
2022-10-01T10:18:50.136Z,26.86
2022-10-01T10:21:22.922Z,27.46
2022-10-01T10:26:58.909Z,29.95
2022-10-01T10:29:37.617Z,30.02
2022-10-01T10:39:29.384Z,31.21
2022-10-01T10:41:59.954Z,32.14
2022-10-01T10:44:36.292Z,31.35
2022-10-01T10:47:14.920Z,31.44
2022-10-01T10:49:49.184Z,31.29
2022-10-01T10:52:24.623Z,31.11
2022-10-01T10:54:57.610Z,31.32
2022-10-01T10:57:38.691Z,31.81
2022-10-01T11:00:26.742Z,32.34
2022-10-01T11:03:04.410Z,31.79
2022-10-01T11:05:39.699Z,32.31
2022-10-01T11:08:24.112Z,32.47
2022-10-01T11:11:12.643Z,32.37
2022-10-01T11:17:05.112Z,32.70
2022-10-01T11:20:02.872Z,32.98
2022-10-01T11:22:58.188Z,33.69
2022-10-01T11:25:45.777Z,32.80
2022-10-01T11:28:15.923Z,33.50
2022-10-01T11:31:37.898Z,33.77
2022-10-01T11:34:05.379Z,32.93
2022-10-01T11:36:45.278Z,33.39
2022-10-01T11:39:21.038Z,33.87
2022-10-01T11:42:09.444Z,32.95
2022-10-01T11:44:58.583Z,33.43
2022-10-01T11:47:47.994Z,34.07
2022-10-01T11:50:20.745Z,33.49
2022-10-01T11:53:02.854Z,33.52
2022-10-01T11:56:05.527Z,33.73
2022-10-01T11:58:54.781Z,33.77
2022-10-01T12:01:47.283Z,34.01
2022-10-01T12:04:35.257Z,33.90
2022-10-01T12:07:44.172Z,34.28
2022-10-01T12:10:52.605Z,34.08
2022-10-01T12:13:28.059Z,34.34
2022-10-01T12:16:20.268Z,34.38
2022-10-01T12:18:54.732Z,34.50
2022-10-01T12:21:45.202Z,35.26
2022-10-01T12:24:15.945Z,34.10
2022-10-01T12:29:54.928Z,34.86
2022-10-01T12:32:58.754Z,34.64
2022-10-01T12:35:47.624Z,35.09
2022-10-01T12:38:45.423Z,34.88
2022-10-01T12:41:34.631Z,35.45
2022-10-01T12:44:32.524Z,35.27
2022-10-01T12:47:21.904Z,34.86
2022-10-01T12:50:12.104Z,34.87
2022-10-01T12:52:58.940Z,35.24
2022-10-01T12:55:34.399Z,35.06
2022-10-01T12:58:22.092Z,35.40
2022-10-01T13:01:15.738Z,35.45
2022-10-01T13:04:03.365Z,35.55
2022-10-01T13:06:55.728Z,35.79
2022-10-01T13:09:37.956Z,36.01
2022-10-01T13:12:42.916Z,36.13
2022-10-01T13:15:35.379Z,35.80
2022-10-01T13:18:12.607Z,35.87
2022-10-01T13:20:57.457Z,36.18
2022-10-01T13:23:41.607Z,36.06
2022-10-01T13:26:40.081Z,35.74
2022-10-01T13:29:35.319Z,35.74
2022-10-01T13:32:25.856Z,36.10
2022-10-01T13:34:54.095Z,35.68
2022-10-01T13:37:30.197Z,35.85
2022-10-01T13:39:59.652Z,36.00
2022-10-01T13:43:07.217Z,36.59
2022-10-01T13:45:41.681Z,36.33
2022-10-01T13:48:34.865Z,36.18
2022-10-01T13:53:58.357Z,36.93
2022-10-01T13:56:38.049Z,37.01
2022-10-01T13:59:27.847Z,37.34
2022-10-01T14:02:01.418Z,37.30
2022-10-01T14:04:41.167Z,37.60
2022-10-01T14:07:15.558Z,37.85
2022-10-01T14:10:04.060Z,37.99
2022-10-01T14:12:52.891Z,38.27
2022-10-01T14:15:44.805Z,38.60
2022-10-01T14:18:20.289Z,38.39
2022-10-01T14:20:53.804Z,38.87
2022-10-01T14:23:34.145Z,38.86
2022-10-01T14:26:25.084Z,39.11
2022-10-01T14:29:15.039Z,40.18
2022-10-01T14:31:59.461Z,40.19
2022-10-01T14:34:50.072Z,40.37
2022-10-01T14:37:20.023Z,40.87
2022-10-01T14:39:47.792Z,40.76
2022-10-01T14:42:18.875Z,41.48
2022-10-01T14:44:47.541Z,42.01
2022-10-01T14:47:23.804Z,41.66
2022-10-01T14:49:52.003Z,42.59
2022-10-01T14:55:16.271Z,43.18
2022-10-01T14:57:52.171Z,43.67
2022-10-01T15:00:31.409Z,43.96
2022-10-01T15:03:03.678Z,44.53
2022-10-01T15:05:36.236Z,45.10
2022-10-01T15:08:51.335Z,45.54
2022-10-01T15:11:44.712Z,45.60
2022-10-01T15:14:20.508Z,46.52
2022-10-01T15:16:50.734Z,47.04
2022-10-01T15:19:23.229Z,48.45
2022-10-01T15:21:54.308Z,49.70
2022-10-01T15:24:42.028Z,50.11
2022-10-01T15:27:11.767Z,50.40
2022-10-01T15:29:40.394Z,51.33
2022-10-01T15:32:07.871Z,52.32
2022-10-01T15:34:35.388Z,52.86
2022-10-01T15:37:04.327Z,52.83
2022-10-01T15:39:39.872Z,53.12
2022-10-01T15:42:26.603Z,54.53
2022-10-01T15:45:22.963Z,54.41
2022-10-01T15:47:57.242Z,55.15
2022-10-01T15:50:32.921Z,55.65
2022-10-01T15:53:24.841Z,55.76
2022-10-01T15:55:58.144Z,55.81
2022-10-01T15:58:32.447Z,56.24
2022-10-01T16:01:05.762Z,55.62
2022-10-01T16:04:01.421Z,54.95
2022-10-01T16:06:35.570Z,55.46
2022-10-01T16:09:12.331Z,54.77
2022-10-01T16:12:04.329Z,53.77
2022-10-01T16:14:59.589Z,52.99
2022-10-01T16:17:30.462Z,52.62
2022-10-01T16:20:00.715Z,52.16
2022-10-01T16:22:34.942Z,51.51
2022-10-01T16:25:26.804Z,51.45
2022-10-01T16:34:02.972Z,51.76
2022-10-01T16:36:58.223Z,51.23
2022-10-01T16:39:25.515Z,50.22
2022-10-01T16:42:12.136Z,49.97
2022-10-01T16:47:11.428Z,50.11
2022-10-01T16:49:38.476Z,49.60
2022-10-01T16:52:06.641Z,49.92
2022-10-01T16:54:33.783Z,49.63
2022-10-01T16:57:02.611Z,50.17
2022-10-01T16:59:43.767Z,50.29
2022-10-01T17:02:15.185Z,51.00
2022-10-01T17:04:47.516Z,51.14
2022-10-01T17:07:14.663Z,50.30
2022-10-01T17:09:41.757Z,50.33
2022-10-01T17:12:11.360Z,51.88
2022-10-01T17:14:39.344Z,53.62
2022-10-01T17:17:06.295Z,53.43
2022-10-01T17:19:34.883Z,55.39
2022-10-01T17:22:17.103Z,55.10
2022-10-01T17:24:45.061Z,53.85
2022-10-01T17:27:14.262Z,55.10
2022-10-01T17:29:41.926Z,54.63
2022-10-01T17:32:09.655Z,54.18
2022-10-01T17:34:36.841Z,53.85
2022-10-01T17:37:03.794Z,54.25
2022-10-01T17:39:32.910Z,55.12
2022-10-01T17:42:01.474Z,56.15
2022-10-01T17:44:28.843Z,55.38
2022-10-01T17:46:56.109Z,54.11
2022-10-01T17:49:29.775Z,53.57
2022-10-01T17:52:09.652Z,53.02
2022-10-01T17:54:40.664Z,53.37
2022-10-01T17:57:10.940Z,53.48
2022-10-01T17:59:39.403Z,53.11
2022-10-01T18:02:23.595Z,53.84
2022-10-01T18:04:54.507Z,53.91
2022-10-01T18:07:22.812Z,54.10
2022-10-01T18:09:55.756Z,54.25
2022-10-01T18:12:25.502Z,53.95
2022-10-01T18:14:53.037Z,54.05
2022-10-01T18:17:22.500Z,53.72
2022-10-01T18:19:54.042Z,54.00
2022-10-01T18:22:30.922Z,53.37
2022-10-01T18:25:03.789Z,53.65
2022-10-01T18:27:52.156Z,52.93
2022-10-01T18:30:20.317Z,52.88
2022-10-01T18:32:57.144Z,53.06
2022-10-01T18:35:31.962Z,52.52
2022-10-01T18:38:07.555Z,52.36
2022-10-01T18:40:42.398Z,52.45
2022-10-01T18:43:40.982Z,51.91
2022-10-01T18:46:39.070Z,52.08
2022-10-01T18:49:34.376Z,51.77
2022-10-01T18:52:28.298Z,51.64
2022-10-01T18:55:25.608Z,51.89
2022-10-01T18:58:19.457Z,51.72
2022-10-01T19:01:05.764Z,51.69
2022-10-01T19:03:45.495Z,51.68
2022-10-01T19:06:21.736Z,51.41
2022-10-01T19:09:17.680Z,51.59
2022-10-01T19:11:59.963Z,51.75
2022-10-01T19:14:31.997Z,52.06
2022-10-01T19:17:14.271Z,51.63
2022-10-01T19:20:27.734Z,51.90
2022-10-01T19:23:19.720Z,52.11
2022-10-01T19:25:54.228Z,52.05
2022-10-01T19:28:43.154Z,52.35
2022-10-01T19:31:33.846Z,52.55
2022-10-01T19:34:18.238Z,52.49
2022-10-01T19:37:13.662Z,52.65
2022-10-01T19:39:49.918Z,53.13
2022-10-01T19:42:29.448Z,52.97
2022-10-01T19:45:13.196Z,53.06
2022-10-01T19:48:13.427Z,53.34
2022-10-01T19:50:44.666Z,53.79
2022-10-01T19:53:23.132Z,53.77
2022-10-01T19:55:52.983Z,54.48
2022-10-01T19:58:23.941Z,54.85
2022-10-01T20:01:00.651Z,54.72
2022-10-01T20:03:33.909Z,54.87
2022-10-01T20:06:15.048Z,54.55
2022-10-01T20:08:52.724Z,54.57
2022-10-01T20:11:47.045Z,55.17
2022-10-01T20:15:00.558Z,54.93
2022-10-01T20:18:03.089Z,55.29
2022-10-01T20:21:15.586Z,55.75
2022-10-01T20:24:02.713Z,56.36
2022-10-01T20:26:43.043Z,56.48
2022-10-01T20:29:29.298Z,57.10
2022-10-01T20:32:04.712Z,56.73
2022-10-01T20:34:45.582Z,57.28
2022-10-01T20:37:18.684Z,57.64
2022-10-01T20:40:09.156Z,57.26
2022-10-01T20:42:49.647Z,57.56
2022-10-01T20:45:26.312Z,57.58
2022-10-01T20:47:58.890Z,57.65
2022-10-01T20:50:32.397Z,57.52
2022-10-01T20:53:04.180Z,58.03
2022-10-01T20:55:49.192Z,57.78
2022-10-01T20:58:34.206Z,57.85
2022-10-01T21:01:13.017Z,57.87
2022-10-01T21:03:58.252Z,58.11
2022-10-01T21:06:47.675Z,58.00
2022-10-01T21:09:54.470Z,58.22
2022-10-01T21:12:27.149Z,58.00
2022-10-01T21:14:58.217Z,58.19
2022-10-01T21:17:35.283Z,58.24
2022-10-01T21:20:05.789Z,57.93
2022-10-01T21:22:40.585Z,57.63
2022-10-01T21:25:45.433Z,57.59
2022-10-01T21:28:24.709Z,57.50
2022-10-01T21:30:53.148Z,57.79
2022-10-01T21:33:44.394Z,57.93
2022-10-01T21:36:23.277Z,57.98
2022-10-01T21:39:21.376Z,57.84
2022-10-01T21:41:58.924Z,57.99
2022-10-01T21:44:41.331Z,58.45
2022-10-01T21:47:39.999Z,58.28
2022-10-01T21:50:22.417Z,58.74
2022-10-01T21:53:11.583Z,59.22
2022-10-01T21:55:59.055Z,59.67
2022-10-01T21:59:06.267Z,59.78
2022-10-01T22:02:04.978Z,60.72
2022-10-01T22:04:42.604Z,61.25
2022-10-01T22:07:16.961Z,61.28
2022-10-01T22:09:50.380Z,61.82
2022-10-01T22:12:17.681Z,62.09
2022-10-01T22:14:46.110Z,62.34
2022-10-01T22:17:22.279Z,62.74
2022-10-01T22:19:53.988Z,62.97
2022-10-01T22:22:25.898Z,63.07
2022-10-01T22:24:54.905Z,63.64
2022-10-01T22:27:35.884Z,63.96
2022-10-01T22:30:33.690Z,63.60
2022-10-01T22:33:20.411Z,64.16
2022-10-01T22:35:53.352Z,65.19
2022-10-01T22:38:30.879Z,65.36
2022-10-01T22:41:08.400Z,65.69
2022-10-01T22:43:36.526Z,66.29
2022-10-01T22:46:22.172Z,65.80
2022-10-01T22:49:04.782Z,66.18
2022-10-01T22:51:46.739Z,66.46
2022-10-01T22:54:21.867Z,66.13
2022-10-01T22:57:21.483Z,66.12
2022-10-01T22:59:58.628Z,65.76
2022-10-01T23:02:34.850Z,65.58
2022-10-01T23:05:30.268Z,65.41
2022-10-01T23:08:35.974Z,65.41
2022-10-01T23:11:15.461Z,65.61
2022-10-01T23:13:55.411Z,65.47
2022-10-01T23:16:35.239Z,65.60
2022-10-01T23:19:25.553Z,65.54
2022-10-01T23:22:05.366Z,65.92
2022-10-01T23:24:46.293Z,65.64
2022-10-01T23:27:35.932Z,65.48
2022-10-01T23:30:09.869Z,65.82
2022-10-01T23:33:02.282Z,65.85
2022-10-01T23:35:48.173Z,65.65
2022-10-01T23:38:33.421Z,65.52
2022-10-01T23:41:12.511Z,65.86
2022-10-01T23:43:46.911Z,65.61
2022-10-01T23:46:35.488Z,65.67
2022-10-01T23:49:14.658Z,65.60
2022-10-01T23:52:13.436Z,66.04
2022-10-01T23:55:23.244Z,66.66
2022-10-01T23:58:00.929Z,66.69
